Time;durP1;ratioP1;P1;durP2;ratioP2;P2;SDS_P1;SDS_P2;PMS_P1;PMS_P2;Temp;Humidity;BMP_temperature;BMP_pressure;BME280_temperature;BME280_humidity;BME280_pressure;Samples;Min_cycle;Max_cycle;Signal;HPM_P1;HPM_P2
2022/08/10 00:00:19;;;;;;;2.08;1.80;;;;;;;22.68;35.55;100165.59;341969;28;1765;-66
2022/08/10 00:00:46;;;;;;;3.38;1.98;;;;;;;22.66;36.17;100178.13;341447;28;1689;-66
2022/08/10 00:00:58;;;;;;;2.83;1.88;;;;;;;22.64;36.17;100174.75;341184;28;1382;-66
2022/08/10 00:01:10;;;;;;;2.47;1.90;;;;;;;22.63;35.32;100166.91;342153;28;1645;-66
2022/08/10 00:01:22;;;;;;;2.88;2.00;;;;;;;22.63;35.37;100173.03;341962;28;1743;-66
2022/08/10 00:01:35;;;;;;;4.32;2.00;;;;;;;22.60;35.73;100167.97;341178;28;1504;-66
2022/08/10 00:01:48;;;;;;;4.72;2.00;;;;;;;22.62;35.09;100170.53;340880;29;1280;-66
2022/08/10 00:02:03;;;;;;;3.00;1.90;;;;;;;22.62;35.00;100175.81;340539;28;1748;-66
2022/08/10 00:02:15;;;;;;;4.20;2.10;;;;;;;22.60;35.30;100167.97;340379;29;1606;-66
2022/08/10 00:02:27;;;;;;;4.50;2.20;;;;;;;22.59;35.08;100168.09;341187;28;1744;-66
2022/08/10 00:02:39;;;;;;;4.88;2.10;;;;;;;22.61;35.18;100169.66;339871;29;1707;-66
2022/08/10 00:02:55;;;;;;;2.78;1.80;;;;;;;22.62;35.53;100167.88;340486;29;1823;-66
2022/08/10 00:03:08;;;;;;;2.55;2.00;;;;;;;22.62;35.38;100175.81;341027;29;1137;-66
2022/08/10 00:03:20;;;;;;;3.78;2.00;;;;;;;22.61;35.50;100174.94;339649;29;1742;-66
2022/08/10 00:03:32;;;;;;;3.72;1.80;;;;;;;22.60;35.79;100167.97;340448;29;1592;-66
2022/08/10 00:03:45;;;;;;;3.25;1.83;;;;;;;22.58;35.77;100167.25;341545;28;1590;-66
2022/08/10 00:03:57;;;;;;;2.10;1.90;;;;;;;22.58;35.29;100172.56;342349;28;1323;-66
2022/08/10 00:04:09;;;;;;;2.00;1.80;;;;;;;22.59;35.46;100176.88;342318;28;1740;-66
2022/08/10 00:04:32;;;;;;;2.22;1.80;;;;;;;22.59;35.49;100168.09;342233;28;1840;-66
2022/08/10 00:04:44;;;;;;;2.40;1.90;;;;;;;22.58;35.84;100175.19;342383;28;1044;-66
2022/08/10 00:04:56;;;;;;;3.40;1.88;;;;;;;22.58;36.00;100169.91;341722;28;1648;-66
2022/08/10 00:05:08;;;;;;;3.53;1.88;;;;;;;22.58;35.70;100175.19;342262;28;1760;-66
2022/08/10 00:05:20;;;;;;;2.95;1.90;;;;;;;22.58;36.25;100175.19;341540;28;1276;-66
2022/08/10 00:05:33;;;;;;;4.38;1.98;;;;;;;22.56;35.88;100171.81;341178;28;1652;-66
2022/08/10 00:06:04;;;;;;;3.25;1.90;;;;;;;22.57;36.62;100167.34;342130;28;1314;-66
2022/08/10 00:06:16;;;;;;;2.40;2.08;;;;;;;22.57;36.35;100173.50;341704;28;1652;-66
2022/08/10 00:06:28;;;;;;;2.95;2.10;;;;;;;22.55;36.71;100175.41;342077;28;1307;-66
2022/08/10 00:06:40;;;;;;;3.00;2.00;;;;;;;22.56;36.20;100176.25;342293;28;1552;-66
2022/08/10 00:06:53;;;;;;;3.05;1.85;;;;;;;22.56;36.46;100171.81;341554;28;1870;-66
2022/08/10 00:07:05;;;;;;;2.38;1.80;;;;;;;22.55;36.00;100170.13;342406;28;1303;-65
2022/08/10 00:07:17;;;;;;;2.65;1.90;;;;;;;22.56;35.63;100170.94;341636;28;1864;-66
2022/08/10 00:07:29;;;;;;;2.88;2.00;;;;;;;22.56;35.85;100170.94;342517;28;1593;-66
2022/08/10 00:07:42;;;;;;;2.38;1.83;;;;;;;22.56;36.43;100170.94;342114;28;2098;-66
2022/08/10 00:07:54;;;;;;;2.85;2.00;;;;;;;22.55;36.37;100175.41;342068;28;1667;-66
2022/08/10 00:08:06;;;;;;;3.35;2.03;;;;;;;22.54;36.73;100174.56;342353;28;1196;-66
2022/08/10 00:08:18;;;;;;;3.03;1.80;;;;;;;22.55;36.18;100170.13;341493;28;1718;-66
2022/08/10 00:08:35;;;;;;;2.88;1.90;;;;;;;22.56;36.13;100177.13;342578;28;1858;-66
2022/08/10 00:08:47;;;;;;;4.55;2.00;;;;;;;22.56;35.85;100171.81;341489;29;753;-66
2022/08/10 00:08:59;;;;;;;4.05;2.00;;;;;;;22.56;35.58;100171.81;341676;28;1231;-66
2022/08/10 00:09:11;;;;;;;3.70;1.88;;;;;;;22.56;35.82;100171.81;342393;28;999;-66
2022/08/10 00:09:23;;;;;;;4.38;2.00;;;;;;;22.55;35.50;100170.13;341664;28;1737;-66
2022/08/10 00:09:35;;;;;;;3.35;2.00;;;;;;;22.54;36.45;100168.44;342547;28;1692;-66
2022/08/10 00:10:05;;;;;;;3.13;2.00;;;;;;;22.53;35.98;100172.03;342056;28;1113;-66
2022/08/10 00:10:20;;;;;;;4.90;1.80;;;;;;;22.54;35.64;100168.44;341698;28;1780;-66
2022/08/10 00:10:31;;;;;;;6.75;1.77;;;;;;;22.53;36.01;100172.03;341783;28;1518;-66
2022/08/10 00:10:43;;;;;;;4.70;1.83;;;;;;;22.54;36.01;100168.44;342262;28;1241;-66
2022/08/10 00:10:56;;;;;;;2.10;1.88;;;;;;;22.54;36.19;100171.94;342527;28;1250;-66
2022/08/10 00:11:09;;;;;;;2.75;2.00;;;;;;;22.53;36.15;100172.03;342319;28;1238;-66
2022/08/10 00:11:27;;;;;;;2.72;2.00;;;;;;;22.51;36.35;100173.94;340570;28;1610;-66
2022/08/10 00:11:39;;;;;;;3.30;1.98;;;;;;;22.50;36.22;100173.13;342748;28;1067;-66
2022/08/10 00:11:51;;;;;;;4.80;2.10;;;;;;;22.51;36.14;100166.00;342300;28;1183;-66
2022/08/10 00:12:04;;;;;;;5.90;2.10;;;;;;;22.52;36.36;100170.34;341299;28;1825;-66
2022/08/10 00:12:18;;;;;;;3.67;2.13;;;;;;;22.51;36.25;100174.78;342229;28;1997;-66
2022/08/10 00:12:30;;;;;;;3.22;2.00;;;;;;;22.51;36.22;100173.94;341947;28;1746;-66
2022/08/10 00:13:02;;;;;;;4.43;1.90;;;;;;;22.47;36.44;100167.19;341856;28;1671;-66
2022/08/10 00:13:14;;;;;;;5.68;1.90;;;;;;;22.46;36.94;100166.34;342363;28;1644;-66
2022/08/10 00:13:27;;;;;;;4.53;1.88;;;;;;;22.48;36.18;100166.25;342441;28;1777;-66
2022/08/10 00:13:39;;;;;;;3.17;1.90;;;;;;;22.46;36.11;100174.31;342470;28;1019;-66
2022/08/10 00:13:51;;;;;;;2.38;1.80;;;;;;;22.46;36.34;100168.16;341628;28;1885;-66
2022/08/10 00:14:03;;;;;;;2.90;1.88;;;;;;;22.46;36.32;100170.81;341505;28;1435;-66
2022/08/10 00:14:16;;;;;;;2.53;1.90;;;;;;;22.46;35.96;100170.81;341725;28;1893;-66
2022/08/10 00:14:28;;;;;;;2.60;2.00;;;;;;;22.46;36.08;100168.16;341862;28;2103;-66
2022/08/10 00:14:40;;;;;;;3.25;2.30;;;;;;;22.44;36.31;100162.97;342283;28;1122;-66
2022/08/10 00:14:52;;;;;;;2.92;2.20;;;;;;;22.46;36.22;100166.34;342298;28;1308;-66
2022/08/10 00:15:05;;;;;;;4.53;2.28;;;;;;;22.47;36.12;100169.84;341606;28;1818;-66
2022/08/10 00:15:19;;;;;;;6.43;1.90;;;;;;;22.46;36.92;100170.81;342393;28;1647;-66
2022/08/10 00:15:51;;;;;;;2.53;1.92;;;;;;;22.41;36.79;100167.66;341413;28;1370;-66
2022/08/10 00:16:06;;;;;;;2.58;1.75;;;;;;;22.40;36.25;100166.81;341374;28;1381;-66
2022/08/10 00:16:18;;;;;;;3.13;1.90;;;;;;;22.40;36.32;100171.28;340843;28;1779;-66
2022/08/10 00:16:30;;;;;;;3.00;2.00;;;;;;;22.38;36.19;100163.44;341330;28;1841;-66
2022/08/10 00:16:42;;;;;;;4.40;1.98;;;;;;;22.38;35.66;100171.38;341224;28;1075;-66
2022/08/10 00:16:54;;;;;;;4.10;1.85;;;;;;;22.38;36.00;100167.88;340805;28;1683;-66
2022/08/10 00:17:06;;;;;;;2.67;1.77;;;;;;;22.39;36.62;100169.56;341642;28;1615;-66
2022/08/10 00:17:18;;;;;;;2.35;1.80;;;;;;;22.38;36.57;100173.19;342157;28;1829;-66
2022/08/10 00:17:30;;;;;;;2.33;1.85;;;;;;;22.38;36.40;100168.72;342551;28;1679;-66
2022/08/10 00:17:42;;;;;;;2.15;1.80;;;;;;;22.36;36.52;100175.09;341241;29;1111;-66
2022/08/10 00:17:54;;;;;;;2.20;1.85;;;;;;;22.38;36.16;100170.53;341029;28;1669;-66
2022/08/10 00:18:06;;;;;;;3.60;1.83;;;;;;;22.38;36.00;100173.19;341090;29;1087;-66
2022/08/10 00:18:18;;;;;;;3.05;1.80;;;;;;;22.38;36.96;100173.19;340857;28;2129;-66
2022/08/10 00:18:47;;;;;;;2.42;1.88;;;;;;;22.38;36.23;100173.19;342123;28;1714;-66
2022/08/10 00:18:59;;;;;;;3.60;2.00;;;;;;;22.39;35.91;100177.50;341407;28;1715;-66
2022/08/10 00:19:11;;;;;;;4.38;2.00;;;;;;;22.38;36.59;100170.53;342209;28;1323;-66
2022/08/10 00:19:27;;;;;;;2.78;1.80;;;;;;;22.39;37.01;100174.84;342052;28;1827;-66
2022/08/10 00:19:59;;;;;;;2.58;1.92;;;;;;;22.38;36.66;100170.53;341473;28;1438;-66
2022/08/10 00:20:15;;;;;;;3.17;2.20;;;;;;;22.38;36.40;100174.03;342002;28;1758;-66
2022/08/10 00:20:28;;;;;;;2.38;2.00;;;;;;;22.39;36.00;100166.91;341940;28;2030;-66
2022/08/10 00:20:40;;;;;;;2.75;1.75;;;;;;;22.39;36.02;100175.69;342652;28;1315;-66
2022/08/10 00:20:52;;;;;;;3.42;1.73;;;;;;;22.40;35.72;100171.28;342388;28;1279;-66
2022/08/10 00:21:06;;;;;;;4.05;1.80;;;;;;;22.39;36.01;100172.22;340981;28;1039;-66
2022/08/10 00:21:18;;;;;;;3.70;1.95;;;;;;;22.40;35.90;100171.28;341150;28;2032;-66
2022/08/10 00:21:30;;;;;;;4.10;2.00;;;;;;;22.38;36.19;100162.59;342053;28;1699;-66
2022/08/10 00:21:43;;;;;;;4.80;2.00;;;;;;;22.39;36.14;100174.84;341969;28;1754;-66
2022/08/10 00:21:55;;;;;;;4.50;1.98;;;;;;;22.39;36.31;100172.22;341574;28;1847;-66
2022/08/10 00:22:07;;;;;;;3.08;1.88;;;;;;;22.38;36.81;100167.88;341240;28;1322;-66
2022/08/10 00:22:19;;;;;;;1.90;1.80;;;;;;;22.39;36.78;100169.56;340791;28;1805;-66
2022/08/10 00:22:31;;;;;;;2.03;1.83;;;;;;;22.39;36.45;100172.22;340861;28;1813;-66
2022/08/10 00:22:44;;;;;;;2.58;1.90;;;;;;;22.37;36.37;100172.31;341840;28;1522;-66
2022/08/10 00:23:09;;;;;;;3.20;1.92;;;;;;;22.39;36.38;100172.22;340862;29;1151;-66
2022/08/10 00:23:21;;;;;;;2.85;1.90;;;;;;;22.39;36.20;100172.22;340679;28;1577;-66
2022/08/10 00:23:34;;;;;;;2.63;1.90;;;;;;;22.38;36.51;100168.72;340977;28;1917;-66
2022/08/10 00:23:46;;;;;;;2.35;1.88;;;;;;;22.39;36.79;100172.22;342577;28;1186;-66
2022/08/10 00:23:58;;;;;;;2.53;1.80;;;;;;;22.39;36.71;100174.84;341695;28;1187;-66
2022/08/10 00:24:10;;;;;;;2.50;1.67;;;;;;;22.37;36.86;100169.66;340883;29;1141;-66
2022/08/10 00:24:23;;;;;;;2.92;1.70;;;;;;;22.38;36.44;100167.88;341279;28;1636;-66
2022/08/10 00:24:35;;;;;;;3.08;1.77;;;;;;;22.38;36.34;100170.53;342673;28;1975;-66
2022/08/10 00:24:56;;;;;;;2.65;1.77;;;;;;;22.37;36.43;100166.19;342160;28;1762;-66
2022/08/10 00:25:09;;;;;;;2.35;1.85;;;;;;;22.37;36.77;100171.47;341924;28;1160;-66
2022/08/10 00:25:21;;;;;;;2.40;1.90;;;;;;;22.36;36.15;100165.34;341126;28;1884;-66
2022/08/10 00:25:33;;;;;;;3.80;2.00;;;;;;;22.37;36.39;100171.47;342042;28;1477;-66
2022/08/10 00:25:45;;;;;;;3.55;2.00;;;;;;;22.36;36.49;100168.00;342342;28;1068;-66
2022/08/10 00:26:00;;;;;;;2.10;1.80;;;;;;;22.36;37.10;100175.09;341760;28;1357;-66
2022/08/10 00:26:12;;;;;;;2.50;1.90;;;;;;;22.35;36.90;100171.59;342292;28;1335;-66
2022/08/10 00:26:23;;;;;;;2.78;1.90;;;;;;;22.34;37.24;100167.25;341503;28;1907;-66
2022/08/10 00:26:36;;;;;;;2.90;1.88;;;;;;;22.32;36.53;100164.72;342359;28;1717;-66
2022/08/10 00:27:09;;;;;;;3.30;1.85;;;;;;;22.30;37.19;100166.63;341497;28;1520;-66
2022/08/10 00:27:41;;;;;;;3.38;2.00;;;;;;;22.33;36.47;100171.72;342699;28;1639;-66
2022/08/10 00:28:13;;;;;;;3.03;2.00;;;;;;;22.28;36.57;100167.72;343442;28;1647;-66
2022/08/10 00:28:25;;;;;;;3.72;1.95;;;;;;;22.25;36.76;100163.47;342679;28;1768;-66
2022/08/10 00:28:37;;;;;;;3.15;2.00;;;;;;;22.26;36.72;100164.34;342542;28;1667;-66
2022/08/10 00:28:49;;;;;;;2.58;1.90;;;;;;;22.28;37.01;100171.19;341062;28;2283;-66
2022/08/10 00:29:01;;;;;;;2.35;1.85;;;;;;;22.27;36.40;100166.84;341718;28;1741;-66
2022/08/10 00:29:20;;;;;;;3.00;1.95;;;;;;;22.28;36.24;100163.25;341037;28;1727;-66
2022/08/10 00:29:32;;;;;;;3.80;1.98;;;;;;;22.29;36.61;100164.94;341387;28;1103;-66
2022/08/10 00:29:44;;;;;;;3.38;1.73;;;;;;;22.29;35.81;100162.28;341090;28;1060;-66
2022/08/10 00:29:56;;;;;;;4.40;1.77;;;;;;;22.28;35.70;100168.56;340970;28;1333;-66
2022/08/10 00:30:09;;;;;;;4.90;1.80;;;;;;;22.28;35.90;100165.06;342362;28;1283;-66
2022/08/10 00:30:21;;;;;;;4.05;1.90;;;;;;;22.28;36.11;100163.25;341740;28;1486;-66
2022/08/10 00:30:35;;;;;;;4.22;2.20;;;;;;;22.30;35.97;100161.34;341118;28;1187;-66
2022/08/10 00:30:47;;;;;;;4.45;2.10;;;;;;;22.25;36.26;100166.13;341160;28;1062;-66
2022/08/10 00:31:00;;;;;;;5.30;1.90;;;;;;;22.25;36.66;100173.22;341465;28;1625;-66
2022/08/10 00:31:12;;;;;;;3.92;1.90;;;;;;;22.25;37.16;100163.47;342180;28;1063;-66
2022/08/10 00:31:24;;;;;;;4.43;2.00;;;;;;;22.24;36.06;100166.25;340821;28;1731;-66
2022/08/10 00:31:36;;;;;;;3.75;1.98;;;;;;;22.25;36.61;100158.16;341389;28;1728;-66
2022/08/10 00:32:08;;;;;;;2.30;1.70;;;;;;;22.23;36.60;100165.34;340908;28;1497;-66
2022/08/10 00:32:20;;;;;;;2.00;1.73;;;;;;;22.23;36.42;100161.88;341295;28;1619;-66
2022/08/10 00:32:32;;;;;;;2.08;1.75;;;;;;;22.21;36.63;100161.97;342444;28;1414;-66
2022/08/10 00:32:44;;;;;;;2.70;1.85;;;;;;;22.21;36.98;100167.25;340864;29;1132;-66
2022/08/10 00:32:56;;;;;;;3.42;2.08;;;;;;;22.21;36.98;100161.13;340906;28;1311;-66
2022/08/10 00:33:08;;;;;;;2.83;2.00;;;;;;;22.22;36.86;100168.97;341909;28;1794;-67
2022/08/10 00:33:20;;;;;;;2.58;1.92;;;;;;;22.21;36.67;100156.66;342548;28;1665;-66
2022/08/10 00:33:33;;;;;;;2.47;1.95;;;;;;;22.22;36.75;100163.69;342316;28;1232;-66
2022/08/10 00:33:44;;;;;;;2.22;1.90;;;;;;;22.22;36.46;100161.03;342344;28;1071;-66
2022/08/10 00:33:56;;;;;;;2.55;1.90;;;;;;;22.22;36.39;100163.69;342351;28;1167;-66
2022/08/10 00:34:09;;;;;;;3.38;1.95;;;;;;;22.22;36.67;100158.38;342510;28;1099;-66
2022/08/10 00:34:20;;;;;;;3.70;2.00;;;;;;;22.21;36.29;100159.31;341434;28;1624;-66
2022/08/10 00:34:33;;;;;;;2.60;1.92;;;;;;;22.18;36.41;100167.50;341373;28;2048;-66
2022/08/10 00:34:46;;;;;;;2.95;1.92;;;;;;;22.16;36.71;100161.47;342078;28;1140;-66
2022/08/10 00:34:58;;;;;;;3.80;1.95;;;;;;;22.18;37.05;100156.91;341259;28;1303;-66
2022/08/10 00:35:10;;;;;;;4.00;2.10;;;;;;;22.19;36.75;100163.88;342167;28;1068;-66
2022/08/10 00:35:22;;;;;;;2.85;2.00;;;;;;;22.20;36.71;100162.09;341538;28;1741;-66
2022/08/10 00:35:34;;;;;;;3.78;1.88;;;;;;;22.17;37.27;100165.78;341861;28;1716;-66
2022/08/10 00:35:46;;;;;;;3.50;1.80;;;;;;;22.18;37.06;100162.22;341011;29;1071;-66
2022/08/10 00:35:58;;;;;;;3.88;1.90;;;;;;;22.19;36.94;100158.59;340870;28;1956;-66
2022/08/10 00:36:10;;;;;;;4.90;2.00;;;;;;;22.17;36.49;100165.78;339372;28;2834;-66
2022/08/10 00:36:22;;;;;;;4.95;2.10;;;;;;;22.18;36.60;100167.50;341929;28;2809;-66
2022/08/10 00:36:34;;;;;;;3.95;2.00;;;;;;;22.17;37.09;100165.78;342093;28;1293;-66
2022/08/10 00:36:46;;;;;;;4.18;2.00;;;;;;;22.17;37.18;100164.97;341381;28;1868;-66
2022/08/10 00:36:59;;;;;;;4.20;2.00;;;;;;;22.18;36.95;100162.22;342157;28;1324;-66
2022/08/10 00:37:12;;;;;;;4.30;2.22;;;;;;;22.18;37.02;100161.38;342440;28;1095;-66
2022/08/10 00:37:24;;;;;;;4.55;2.22;;;;;;;22.18;37.04;100166.66;342278;28;1062;-66
2022/08/10 00:37:36;;;;;;;3.47;2.10;;;;;;;22.18;36.99;100162.22;342207;28;1269;-66
2022/08/10 00:37:48;;;;;;;3.53;1.83;;;;;;;22.18;37.49;100164.84;342347;28;1052;-66
2022/08/10 00:38:08;;;;;;;5.35;2.00;;;;;;;22.17;36.63;100160.50;340726;29;1060;-66
2022/08/10 00:38:21;;;;;;;6.23;2.00;;;;;;;22.18;36.58;100164.84;339615;29;2202;-66
2022/08/10 00:38:35;;;;;;;4.85;2.00;;;;;;;22.16;37.04;100164.13;341025;28;1649;-66
2022/08/10 00:38:47;;;;;;;3.28;2.00;;;;;;;22.16;36.92;100164.13;342567;28;1000;-66
2022/08/10 00:38:59;;;;;;;2.78;1.88;;;;;;;22.16;37.31;100164.13;341442;28;1979;-66
2022/08/10 00:39:11;;;;;;;2.90;2.00;;;;;;;22.17;37.20;100164.97;342036;28;1448;-66
2022/08/10 00:39:27;;;;;;;2.33;2.03;;;;;;;22.18;37.05;100162.22;342196;28;1561;-66
2022/08/10 00:39:40;;;;;;;2.22;1.85;;;;;;;22.17;37.32;100165.78;342117;28;1292;-66
2022/08/10 00:39:52;;;;;;;2.30;1.80;;;;;;;22.16;36.91;100158.81;342131;28;1991;-66
2022/08/10 00:40:05;;;;;;;2.45;1.90;;;;;;;22.17;37.11;100160.50;340730;29;1947;-66
2022/08/10 00:40:17;;;;;;;2.07;1.87;;;;;;;22.18;37.34;100167.50;341045;29;1115;-66
2022/08/10 00:40:46;;;;;;;2.45;1.80;;;;;;;22.19;37.00;100163.88;342566;28;1079;-66
2022/08/10 00:40:58;;;;;;;3.60;1.97;;;;;;;22.19;36.56;100160.41;342334;28;1325;-66
2022/08/10 00:41:10;;;;;;;3.15;2.00;;;;;;;22.19;36.92;100161.25;342084;28;1273;-66
2022/08/10 00:41:22;;;;;;;2.90;1.90;;;;;;;22.17;36.75;100165.78;340896;28;1513;-66
2022/08/10 00:41:34;;;;;;;4.00;1.90;;;;;;;22.16;36.81;100161.47;341257;28;1024;-66
2022/08/10 00:41:46;;;;;;;4.18;1.98;;;;;;;22.17;36.68;100163.16;342253;28;1019;-66
2022/08/10 00:42:18;;;;;;;3.47;2.00;;;;;;;22.16;37.06;100158.81;341289;28;2367;-66
2022/08/10 00:42:30;;;;;;;3.40;2.03;;;;;;;22.16;36.95;100166.78;341875;28;1515;-66
2022/08/10 00:42:43;;;;;;;2.80;1.90;;;;;;;22.16;37.11;100164.13;341752;28;1809;-66
2022/08/10 00:42:55;;;;;;;2.70;2.00;;;;;;;22.15;37.01;100162.41;342401;28;1035;-66
2022/08/10 00:43:07;;;;;;;2.83;2.20;;;;;;;22.14;37.28;100163.38;342528;28;1176;-66
2022/08/10 00:43:19;;;;;;;2.40;2.20;;;;;;;22.15;36.72;100162.41;342187;28;1741;-66
2022/08/10 00:43:34;;;;;;;2.30;1.95;;;;;;;22.14;36.61;100164.22;341741;28;1844;-66
2022/08/10 00:43:46;;;;;;;2.10;1.90;;;;;;;22.16;37.10;100163.28;342149;28;1075;-66
2022/08/10 00:43:58;;;;;;;2.75;1.90;;;;;;;22.18;36.67;100161.38;342257;28;1089;-66
2022/08/10 00:44:10;;;;;;;3.30;2.00;;;;;;;22.16;36.52;100164.13;341411;28;1701;-66
2022/08/10 00:44:22;;;;;;;3.47;2.00;;;;;;;22.13;36.69;100162.56;342191;28;1684;-66
2022/08/10 00:44:39;;;;;;;6.60;2.03;;;;;;;22.13;36.63;100162.56;343514;28;1023;-66
2022/08/10 00:44:52;;;;;;;7.00;1.95;;;;;;;22.13;37.17;100159.03;342391;28;1091;-66
2022/08/10 00:45:05;;;;;;;3.10;1.83;;;;;;;22.13;37.16;100165.19;341611;28;1801;-66
2022/08/10 00:45:17;;;;;;;3.42;1.90;;;;;;;22.14;37.08;100158.09;341974;28;1521;-66
2022/08/10 00:45:29;;;;;;;4.45;2.03;;;;;;;22.14;37.35;100160.75;341747;28;1047;-66
2022/08/10 00:45:41;;;;;;;3.42;2.00;;;;;;;22.14;37.05;100163.38;339824;28;1812;-66
2022/08/10 00:45:54;;;;;;;3.67;1.90;;;;;;;22.13;36.96;100159.03;341732;28;1689;-66
2022/08/10 00:46:11;;;;;;;3.05;1.90;;;;;;;22.14;37.20;100160.75;341303;28;1707;-66
2022/08/10 00:46:23;;;;;;;4.70;1.90;;;;;;;22.14;36.62;100160.75;342281;28;1071;-66
2022/08/10 00:46:35;;;;;;;4.60;1.80;;;;;;;22.15;36.67;100167.72;342270;28;1203;-66
2022/08/10 00:46:51;;;;;;;2.78;1.80;;;;;;;22.14;36.92;100164.22;342454;28;1162;-66
2022/08/10 00:47:04;;;;;;;3.38;2.00;;;;;;;22.13;37.22;100156.38;342184;28;1068;-66
2022/08/10 00:47:16;;;;;;;3.88;2.03;;;;;;;22.15;37.40;100162.41;342469;28;1063;-66
2022/08/10 00:47:48;;;;;;;2.45;2.20;;;;;;;22.10;36.81;100160.13;342282;28;1083;-66
2022/08/10 00:48:01;;;;;;;3.03;2.05;;;;;;;22.12;36.81;100162.66;342297;28;1345;-66
2022/08/10 00:48:13;;;;;;;3.40;2.00;;;;;;;22.08;36.71;100156.72;341300;28;1635;-66
2022/08/10 00:48:27;;;;;;;3.25;2.15;;;;;;;22.06;36.92;100158.66;341279;28;1708;-66
2022/08/10 00:48:39;;;;;;;2.50;2.03;;;;;;;22.08;36.80;100155.91;342233;28;1740;-66
2022/08/10 00:48:51;;;;;;;2.80;2.00;;;;;;;22.08;37.15;100161.19;342504;28;1084;-66
2022/08/10 00:49:12;;;;;;;3.08;2.00;;;;;;;22.07;37.41;100160.34;341133;28;1043;-66
2022/08/10 00:49:24;;;;;;;2.85;2.00;;;;;;;22.07;37.83;100159.47;341494;28;1852;-66
2022/08/10 00:49:36;;;;;;;2.75;2.00;;;;;;;22.07;37.12;100155.06;341670;28;1715;-66
2022/08/10 00:49:49;;;;;;;2.60;1.80;;;;;;;22.05;36.65;100150.81;341775;28;1838;-66
2022/08/10 00:50:02;;;;;;;2.95;1.92;;;;;;;22.04;37.50;100159.72;341327;28;1802;-66
2022/08/10 00:50:16;;;;;;;2.60;2.00;;;;;;;22.06;37.42;100157.81;341749;28;1680;-66
2022/08/10 00:50:29;;;;;;;2.20;2.00;;;;;;;22.04;36.98;100162.38;342036;28;1658;-66
2022/08/10 00:50:41;;;;;;;2.03;1.83;;;;;;;22.06;36.77;100163.09;341778;28;1715;-66
2022/08/10 00:50:53;;;;;;;2.63;1.80;;;;;;;22.05;37.39;100156.94;342209;28;1561;-66
2022/08/10 00:51:05;;;;;;;2.78;1.83;;;;;;;22.05;37.91;100156.09;342427;28;1227;-66
2022/08/10 00:51:17;;;;;;;3.17;1.90;;;;;;;22.06;37.90;100157.81;341836;28;1853;-66
2022/08/10 00:51:34;;;;;;;3.80;1.90;;;;;;;22.07;37.40;100151.53;341944;28;1741;-66
2022/08/10 00:51:59;;;;;;;4.75;2.10;;;;;;;22.08;37.28;100150.59;342269;28;1399;-66
2022/08/10 00:52:13;;;;;;;3.78;2.08;;;;;;;22.08;37.30;100155.91;342685;28;1138;-66
2022/08/10 00:52:26;;;;;;;3.85;2.00;;;;;;;22.07;37.41;100151.53;342511;28;1019;-66
2022/08/10 00:52:38;;;;;;;3.80;1.98;;;;;;;22.07;37.84;100151.53;341471;28;1874;-66
2022/08/10 00:52:50;;;;;;;2.80;1.83;;;;;;;22.07;38.19;100163.00;340981;28;1120;-66
2022/08/10 00:53:03;;;;;;;2.83;1.90;;;;;;;22.09;37.52;100154.94;341977;28;1343;-66
2022/08/10 00:53:15;;;;;;;3.22;2.00;;;;;;;22.08;37.29;100158.53;342621;28;1185;-66
2022/08/10 00:53:27;;;;;;;2.60;2.00;;;;;;;22.09;36.92;100155.78;341040;28;1868;-66
2022/08/10 00:53:40;;;;;;;2.28;1.85;;;;;;;22.10;37.21;100153.97;342654;28;1063;-67
2022/08/10 00:53:52;;;;;;;2.10;1.90;;;;;;;22.10;37.53;100151.34;342190;28;1173;-66
2022/08/10 00:54:05;;;;;;;2.25;1.92;;;;;;;22.10;37.46;100153.97;342312;28;1359;-66
2022/08/10 00:54:18;;;;;;;2.63;1.90;;;;;;;22.10;36.92;100157.47;340857;28;1968;-66
2022/08/10 00:54:36;;;;;;;2.72;1.98;;;;;;;22.10;36.88;100159.28;342148;28;1398;-66
2022/08/10 00:54:48;;;;;;;3.70;1.95;;;;;;;22.11;37.01;100153.00;341362;28;1011;-66
2022/08/10 00:55:04;;;;;;;3.53;1.90;;;;;;;22.11;36.93;100158.31;340751;28;1913;-66
2022/08/10 00:55:17;;;;;;;2.28;1.88;;;;;;;22.11;36.54;100153.88;342126;28;2141;-66
2022/08/10 00:55:29;;;;;;;1.95;1.63;;;;;;;22.14;36.85;100166.03;342116;28;1923;-66
2022/08/10 00:55:42;;;;;;;1.70;1.60;;;;;;;22.14;36.92;100160.75;342679;28;1294;-66
2022/08/10 00:56:14;;;;;;;3.15;2.00;;;;;;;22.16;37.16;100148.25;341016;28;2687;-67
2022/08/10 00:56:46;;;;;;;2.83;1.80;;;;;;;22.16;36.88;100153.53;340702;29;1383;-66
2022/08/10 00:57:18;;;;;;;3.25;2.00;;;;;;;22.15;36.60;100151.81;340707;28;1927;-66
2022/08/10 00:57:31;;;;;;;3.22;2.00;;;;;;;22.15;37.27;100149.19;341934;28;1387;-66
2022/08/10 00:57:43;;;;;;;3.00;1.95;;;;;;;22.14;37.46;100151.00;341118;28;1675;-66
2022/08/10 00:57:55;;;;;;;2.67;1.90;;;;;;;22.14;37.35;100153.63;341204;28;1795;-66
2022/08/10 00:58:07;;;;;;;2.58;1.90;;;;;;;22.13;37.41;100156.38;341819;28;1200;-66
2022/08/10 00:58:20;;;;;;;2.42;1.63;;;;;;;22.12;37.34;100150.25;341340;28;1865;-66
2022/08/10 00:58:33;;;;;;;2.88;1.63;;;;;;;22.11;37.86;100155.66;342071;28;1783;-66
2022/08/10 00:58:46;;;;;;;3.40;1.73;;;;;;;22.11;37.01;100153.00;341242;28;1309;-66
2022/08/10 00:58:58;;;;;;;2.95;1.90;;;;;;;22.10;37.28;100149.53;341217;28;1276;-66
2022/08/10 00:59:10;;;;;;;2.67;1.90;;;;;;;22.09;37.28;100152.28;342538;28;1255;-66
2022/08/10 00:59:23;;;;;;;2.28;1.80;;;;;;;22.10;37.57;100149.53;341722;28;1754;-66
2022/08/10 00:59:35;;;;;;;2.28;1.88;;;;;;;22.10;36.83;100148.69;341574;28;1671;-66
2022/08/10 01:00:08;;;;;;;4.07;1.88;;;;;;;22.10;37.46;100148.69;341458;28;2168;-66
2022/08/10 01:00:20;;;;;;;6.10;1.90;;;;;;;22.10;37.49;100153.97;341813;28;1802;-66
2022/08/10 01:00:32;;;;;;;5.22;2.00;;;;;;;22.08;37.48;100154.09;342488;28;1056;-66
2022/08/10 01:00:46;;;;;;;4.35;1.90;;;;;;;22.08;37.28;100151.44;342177;28;1793;-66
2022/08/10 01:00:58;;;;;;;2.30;1.83;;;;;;;22.09;37.18;100152.28;341531;28;1039;-66
2022/08/10 01:01:11;;;;;;;2.38;1.80;;;;;;;22.09;37.61;100154.94;341835;28;1794;-66
2022/08/10 01:01:43;;;;;;;4.47;1.98;;;;;;;22.08;37.28;100153.25;342432;28;1465;-66
2022/08/10 01:02:14;;;;;;;3.85;2.10;;;;;;;22.08;37.44;100156.72;340916;28;1598;-66
2022/08/10 01:02:29;;;;;;;3.13;2.00;;;;;;;22.08;36.80;100153.25;341481;28;1771;-66
2022/08/10 01:02:41;;;;;;;2.38;1.98;;;;;;;22.09;37.09;100157.56;340774;28;1674;-66
2022/08/10 01:02:53;;;;;;;3.15;2.00;;;;;;;22.08;37.28;100158.53;341731;28;1736;-66
2022/08/10 01:03:05;;;;;;;3.17;2.00;;;;;;;22.10;37.08;100159.28;341833;28;1317;-66
2022/08/10 01:03:17;;;;;;;3.28;2.00;;;;;;;22.11;37.36;100155.66;340718;29;1687;-66
2022/08/10 01:03:49;;;;;;;2.90;1.83;;;;;;;22.05;37.40;100156.09;340788;28;1496;-66
2022/08/10 01:04:21;;;;;;;5.05;2.25;;;;;;;22.07;36.93;100154.19;340669;28;1764;-66
2022/08/10 01:04:53;;;;;;;2.10;1.70;;;;;;;22.04;37.37;100157.91;340934;29;1434;-66
2022/08/10 01:05:13;;;;;;;3.15;1.90;;;;;;;22.05;37.01;100161.41;340861;28;1832;-66
2022/08/10 01:05:25;;;;;;;3.30;2.00;;;;;;;22.04;37.33;100159.72;341441;28;1773;-66
2022/08/10 01:05:48;;;;;;;2.55;1.85;;;;;;;22.06;36.88;100160.47;342125;28;1766;-66
2022/08/10 01:06:22;;;;;;;5.15;1.85;;;;;;;22.05;36.69;100162.22;342116;28;1074;-66
2022/08/10 01:06:48;;;;;;;2.95;2.08;;;;;;;22.00;36.63;100159.09;341217;28;1079;-66
2022/08/10 01:07:27;;;;;;;2.03;1.73;;;;;;;22.00;37.57;100158.25;342070;28;1323;-66
2022/08/10 01:07:52;;;;;;;1.90;1.80;;;;;;;21.98;37.16;100160.16;341778;28;1942;-66
2022/08/10 01:08:42;;;;;;;2.45;1.80;;;;;;;21.98;37.70;100162.81;342036;28;1253;-66
2022/08/10 01:09:14;;;;;;;4.20;1.92;;;;;;;21.96;37.47;100154.97;338039;29;2542;-66
2022/08/10 01:09:38;;;;;;;3.50;1.77;;;;;;;21.97;37.18;100158.47;341270;28;1118;-66
2022/08/10 01:10:21;;;;;;;4.47;2.08;;;;;;;21.99;36.48;100156.53;341655;28;1524;-66
2022/08/10 01:10:54;;;;;;;2.10;1.80;;;;;;;21.96;36.94;100156.78;342492;28;1583;-66
2022/08/10 01:11:17;;;;;;;2.42;1.83;;;;;;;21.97;36.62;100156.66;341413;28;1071;-66
2022/08/10 01:12:09;;;;;;;2.10;1.90;;;;;;;21.98;37.20;100160.16;340566;28;1818;-65
2022/08/10 01:13:01;;;;;;;1.98;1.77;;;;;;;21.97;37.28;100161.09;341974;28;1392;-66
2022/08/10 01:13:39;;;;;;;1.98;1.83;;;;;;;21.96;37.01;100167.38;341334;28;1263;-66
2022/08/10 01:14:02;;;;;;;3.83;1.90;;;;;;;21.91;37.29;100160.63;341128;28;1618;-66